sensor_id;sensor_type;location;lat;lon;timestamp;noise_LAeq;noise_LA_min;noise_LA_max;noise_LA01;noise_LA95
37223;Laerm;28026;48.562;14.440;2023-05-07T00:01:22;36.56;31.68;39.58;;
37223;Laerm;28026;48.562;14.440;2023-05-07T00:03:52;36.73;30.89;40.13;;
37223;Laerm;28026;48.562;14.440;2023-05-07T00:06:23;37.10;30.89;42.88;;
37223;Laerm;28026;48.562;14.440;2023-05-07T00:08:56;41.34;32.35;44.76;;
37223;Laerm;28026;48.562;14.440;2023-05-07T00:11:28;36.89;30.89;39.81;;
37223;Laerm;28026;48.562;14.440;2023-05-07T00:13:59;36.78;31.68;39.81;;
37223;Laerm;28026;48.562;14.440;2023-05-07T00:16:30;36.81;31.68;42.59;;
37223;Laerm;28026;48.562;14.440;2023-05-07T00:19:01;36.92;30.89;45.04;;
37223;Laerm;28026;48.562;14.440;2023-05-07T00:21:31;36.80;30.89;44.23;;
37223;Laerm;28026;48.562;14.440;2023-05-07T00:24:02;36.94;31.68;50.45;;
37223;Laerm;28026;48.562;14.440;2023-05-07T00:26:33;36.43;30.89;40.23;;
37223;Laerm;28026;48.562;14.440;2023-05-07T00:29:04;40.67;30.89;48.45;;
37223;Laerm;28026;48.562;14.440;2023-05-07T00:31:35;39.29;32.35;47.79;;
37223;Laerm;28026;48.562;14.440;2023-05-07T00:34:06;36.92;30.89;43.00;;
37223;Laerm;28026;48.562;14.440;2023-05-07T00:36:36;36.43;29.92;41.30;;
37223;Laerm;28026;48.562;14.440;2023-05-07T00:39:07;36.48;30.89;41.14;;
37223;Laerm;28026;48.562;14.440;2023-05-07T00:41:38;36.82;31.68;40.98;;
37223;Laerm;28026;48.562;14.440;2023-05-07T00:44:09;36.59;29.92;43.49;;
37223;Laerm;28026;48.562;14.440;2023-05-07T00:46:40;36.38;29.92;39.58;;
37223;Laerm;28026;48.562;14.440;2023-05-07T00:49:11;36.43;30.89;40.03;;
37223;Laerm;28026;48.562;14.440;2023-05-07T00:51:42;36.44;29.92;40.03;;
37223;Laerm;28026;48.562;14.440;2023-05-07T00:54:13;36.55;30.89;41.61;;
37223;Laerm;28026;48.562;14.440;2023-05-07T00:56:44;36.49;29.92;40.89;;
37223;Laerm;28026;48.562;14.440;2023-05-07T00:59:16;39.90;29.92;46.40;;
37223;Laerm;28026;48.562;14.440;2023-05-07T01:01:46;36.97;30.89;42.22;;
37223;Laerm;28026;48.562;14.440;2023-05-07T01:04:17;36.62;30.89;40.03;;
37223;Laerm;28026;48.562;14.440;2023-05-07T01:06:49;36.21;30.89;39.70;;
37223;Laerm;28026;48.562;14.440;2023-05-07T01:09:20;36.32;30.89;40.80;;
37223;Laerm;28026;48.562;14.440;2023-05-07T01:11:52;36.25;30.89;39.34;;
37223;Laerm;28026;48.562;14.440;2023-05-07T01:14:23;36.29;29.92;40.53;;
37223;Laerm;28026;48.562;14.440;2023-05-07T01:16:56;36.24;26.91;39.70;;
37223;Laerm;28026;48.562;14.440;2023-05-07T01:19:29;36.33;30.89;41.38;;
37223;Laerm;28026;48.562;14.440;2023-05-07T01:22:08;36.29;29.92;39.58;;
37223;Laerm;28026;48.562;14.440;2023-05-07T01:24:39;36.32;29.92;40.53;;
37223;Laerm;28026;48.562;14.440;2023-05-07T01:27:10;36.37;31.68;39.92;;
37223;Laerm;28026;48.562;14.440;2023-05-07T01:29:41;36.41;30.89;41.53;;
37223;Laerm;28026;48.562;14.440;2023-05-07T01:32:13;36.32;29.92;41.06;;
37223;Laerm;28026;48.562;14.440;2023-05-07T01:34:48;36.36;30.54;42.76;;
37223;Laerm;28026;48.562;14.440;2023-05-07T01:37:21;36.30;30.89;39.70;;
37223;Laerm;28026;48.562;14.440;2023-05-07T01:39:53;36.30;30.89;39.46;;
37223;Laerm;28026;48.562;14.440;2023-05-07T01:42:24;36.30;30.89;39.81;;
37223;Laerm;28026;48.562;14.440;2023-05-07T01:44:55;37.73;29.92;47.40;;
37223;Laerm;28026;48.562;14.440;2023-05-07T01:47:27;37.85;30.89;45.54;;
37223;Laerm;28026;48.562;14.440;2023-05-07T01:49:58;36.39;30.54;39.89;;
37223;Laerm;28026;48.562;14.440;2023-05-07T01:52:29;36.31;30.89;42.65;;
37223;Laerm;28026;48.562;14.440;2023-05-07T01:55:00;36.32;29.92;39.70;;
37223;Laerm;28026;48.562;14.440;2023-05-07T01:57:31;36.34;30.89;39.58;;
37223;Laerm;28026;48.562;14.440;2023-05-07T02:00:02;36.35;29.92;40.98;;
37223;Laerm;28026;48.562;14.440;2023-05-07T02:02:35;36.34;30.89;40.13;;
37223;Laerm;28026;48.562;14.440;2023-05-07T02:05:06;36.36;29.92;43.81;;
37223;Laerm;28026;48.562;14.440;2023-05-07T02:07:37;36.33;28.67;39.46;;
37223;Laerm;28026;48.562;14.440;2023-05-07T02:10:09;36.34;28.67;39.58;;
37223;Laerm;28026;48.562;14.440;2023-05-07T02:12:40;36.45;29.92;39.21;;
37223;Laerm;28026;48.562;14.440;2023-05-07T02:15:10;36.65;31.68;40.13;;
37223;Laerm;28026;48.562;14.440;2023-05-07T02:18:06;36.41;30.89;39.34;;
37223;Laerm;28026;48.562;14.440;2023-05-07T02:20:37;36.49;30.89;39.21;;
37223;Laerm;28026;48.562;14.440;2023-05-07T02:23:08;36.45;30.89;39.70;;
37223;Laerm;28026;48.562;14.440;2023-05-07T02:25:39;37.94;30.89;43.72;;
37223;Laerm;28026;48.562;14.440;2023-05-07T02:28:10;38.43;31.68;56.56;;
37223;Laerm;28026;48.562;14.440;2023-05-07T02:30:40;36.53;30.89;39.58;;
37223;Laerm;28026;48.562;14.440;2023-05-07T02:33:11;36.60;30.89;40.03;;
37223;Laerm;28026;48.562;14.440;2023-05-07T02:35:44;36.50;30.89;44.65;;
37223;Laerm;28026;48.562;14.440;2023-05-07T02:38:15;39.42;30.89;47.28;;
37223;Laerm;28026;48.562;14.440;2023-05-07T02:40:46;39.47;31.68;44.87;;
37223;Laerm;28026;48.562;14.440;2023-05-07T02:43:16;37.79;30.89;43.63;;
37223;Laerm;28026;48.562;14.440;2023-05-07T02:45:47;38.31;29.92;51.52;;
37223;Laerm;28026;48.562;14.440;2023-05-07T02:48:18;41.98;32.93;57.07;;
37223;Laerm;28026;48.562;14.440;2023-05-07T02:50:49;42.56;35.36;57.87;;
37223;Laerm;28026;48.562;14.440;2023-05-07T02:53:20;40.14;31.68;55.49;;
37223;Laerm;28026;48.562;14.440;2023-05-07T02:55:50;40.75;32.35;58.46;;
37223;Laerm;28026;48.562;14.440;2023-05-07T02:58:21;41.99;32.93;59.02;;
37223;Laerm;28026;48.562;14.440;2023-05-07T03:00:53;40.81;34.31;56.55;;
37223;Laerm;28026;48.562;14.440;2023-05-07T03:03:25;41.33;32.35;57.32;;
37223;Laerm;28026;48.562;14.440;2023-05-07T03:05:55;42.13;33.90;52.38;;
37223;Laerm;28026;48.562;14.440;2023-05-07T03:08:27;42.73;32.93;54.82;;
37223;Laerm;28026;48.562;14.440;2023-05-07T03:10:58;43.31;32.93;54.99;;
37223;Laerm;28026;48.562;14.440;2023-05-07T03:13:28;43.34;33.44;54.95;;
37223;Laerm;28026;48.562;14.440;2023-05-07T03:15:59;41.66;33.44;59.83;;
37223;Laerm;28026;48.562;14.440;2023-05-07T03:18:30;44.00;34.31;54.30;;
37223;Laerm;28026;48.562;14.440;2023-05-07T03:21:01;43.37;35.04;56.72;;
37223;Laerm;28026;48.562;14.440;2023-05-07T03:23:32;41.98;33.90;56.26;;
37223;Laerm;28026;48.562;14.440;2023-05-07T03:26:02;43.35;33.90;53.57;;
37223;Laerm;28026;48.562;14.440;2023-05-07T03:28:33;44.27;36.69;55.81;;
37223;Laerm;28026;48.562;14.440;2023-05-07T03:31:04;43.35;35.04;53.58;;
37223;Laerm;28026;48.562;14.440;2023-05-07T03:33:50;44.08;36.20;60.69;;
37223;Laerm;28026;48.562;14.440;2023-05-07T03:36:22;46.16;36.20;64.09;;
37223;Laerm;28026;48.562;14.440;2023-05-07T03:38:54;42.89;34.69;65.79;;
37223;Laerm;28026;48.562;14.440;2023-05-07T03:41:24;42.89;32.35;56.36;;
37223;Laerm;28026;48.562;14.440;2023-05-07T03:43:56;44.53;40.03;52.87;;
37223;Laerm;28026;48.562;14.440;2023-05-07T03:46:27;42.49;35.04;55.21;;
37223;Laerm;28026;48.562;14.440;2023-05-07T03:48:58;41.63;33.44;51.84;;
37223;Laerm;28026;48.562;14.440;2023-05-07T03:51:30;43.42;34.31;55.39;;
37223;Laerm;28026;48.562;14.440;2023-05-07T03:54:01;41.99;35.36;52.41;;
37223;Laerm;28026;48.562;14.440;2023-05-07T03:56:32;43.09;35.36;53.53;;
37223;Laerm;28026;48.562;14.440;2023-05-07T03:59:02;45.78;37.70;65.37;;
37223;Laerm;28026;48.562;14.440;2023-05-07T04:01:33;44.60;34.69;59.07;;
37223;Laerm;28026;48.562;14.440;2023-05-07T04:04:04;43.23;35.01;56.17;;
37223;Laerm;28026;48.562;14.440;2023-05-07T04:06:35;39.95;33.90;58.43;;
37223;Laerm;28026;48.562;14.440;2023-05-07T04:09:06;42.29;34.31;55.29;;
37223;Laerm;28026;48.562;14.440;2023-05-07T04:11:37;43.26;35.94;56.34;;
37223;Laerm;28026;48.562;14.440;2023-05-07T04:14:07;40.39;32.93;59.74;;
37223;Laerm;28026;48.562;14.440;2023-05-07T04:16:38;42.36;35.66;53.45;;
37223;Laerm;28026;48.562;14.440;2023-05-07T04:19:09;43.42;37.53;56.32;;
37223;Laerm;28026;48.562;14.440;2023-05-07T04:21:40;42.87;34.69;56.53;;
37223;Laerm;28026;48.562;14.440;2023-05-07T04:24:11;42.56;34.31;60.73;;
37223;Laerm;28026;48.562;14.440;2023-05-07T04:26:41;41.59;34.31;54.00;;
37223;Laerm;28026;48.562;14.440;2023-05-07T04:29:12;40.45;32.93;54.22;;
37223;Laerm;28026;48.562;14.440;2023-05-07T04:31:43;40.69;33.44;64.00;;
37223;Laerm;28026;48.562;14.440;2023-05-07T04:34:14;41.58;33.90;56.11;;
37223;Laerm;28026;48.562;14.440;2023-05-07T04:36:45;40.80;32.93;57.60;;
37223;Laerm;28026;48.562;14.440;2023-05-07T04:39:16;38.92;33.90;55.29;;
37223;Laerm;28026;48.562;14.440;2023-05-07T04:41:47;44.73;36.10;56.80;;
37223;Laerm;28026;48.562;14.440;2023-05-07T04:44:18;42.69;33.90;53.60;;
37223;Laerm;28026;48.562;14.440;2023-05-07T04:46:48;41.10;33.44;61.13;;
37223;Laerm;28026;48.562;14.440;2023-05-07T04:49:19;43.99;37.70;60.99;;
37223;Laerm;28026;48.562;14.440;2023-05-07T04:51:50;43.82;34.31;69.34;;
37223;Laerm;28026;48.562;14.440;2023-05-07T04:54:21;43.22;35.04;54.61;;
37223;Laerm;28026;48.562;14.440;2023-05-07T04:56:51;42.95;35.04;53.74;;
37223;Laerm;28026;48.562;14.440;2023-05-07T04:59:22;43.75;37.32;53.08;;
37223;Laerm;28026;48.562;14.440;2023-05-07T05:01:53;44.61;36.45;59.98;;
37223;Laerm;28026;48.562;14.440;2023-05-07T05:04:24;43.92;34.69;66.56;;
37223;Laerm;28026;48.562;14.440;2023-05-07T05:06:55;39.86;34.69;51.28;;
37223;Laerm;28026;48.562;14.440;2023-05-07T05:09:25;40.49;34.69;52.78;;
37223;Laerm;28026;48.562;14.440;2023-05-07T05:11:56;39.48;33.90;52.84;;
37223;Laerm;28026;48.562;14.440;2023-05-07T05:14:27;40.71;33.90;55.44;;
37223;Laerm;28026;48.562;14.440;2023-05-07T05:16:58;44.21;36.45;54.07;;
37223;Laerm;28026;48.562;14.440;2023-05-07T05:19:29;41.76;35.04;59.47;;
37223;Laerm;28026;48.562;14.440;2023-05-07T05:21:59;42.49;34.69;55.17;;
37223;Laerm;28026;48.562;14.440;2023-05-07T05:24:31;40.96;35.04;51.76;;
37223;Laerm;28026;48.562;14.440;2023-05-07T05:27:02;42.98;37.12;51.94;;
37223;Laerm;28026;48.562;14.440;2023-05-07T05:29:33;41.63;35.66;52.88;;
37223;Laerm;28026;48.562;14.440;2023-05-07T05:32:04;41.82;35.36;57.41;;
37223;Laerm;28026;48.562;14.440;2023-05-07T05:34:35;39.48;34.31;53.72;;
37223;Laerm;28026;48.562;14.440;2023-05-07T05:37:05;38.95;34.69;47.86;;
37223;Laerm;28026;48.562;14.440;2023-05-07T05:39:36;43.17;36.45;54.46;;
37223;Laerm;28026;48.562;14.440;2023-05-07T05:42:07;42.75;36.20;52.83;;
37223;Laerm;28026;48.562;14.440;2023-05-07T05:44:38;42.41;35.94;54.69;;
37223;Laerm;28026;48.562;14.440;2023-05-07T05:47:09;40.71;34.69;56.19;;
37223;Laerm;28026;48.562;14.440;2023-05-07T05:49:39;41.18;34.69;48.16;;
37223;Laerm;28026;48.562;14.440;2023-05-07T05:52:12;41.93;36.45;52.34;;
37223;Laerm;28026;48.562;14.440;2023-05-07T05:54:44;40.54;35.04;50.56;;
37223;Laerm;28026;48.562;14.440;2023-05-07T05:57:15;39.09;32.93;50.14;;
37223;Laerm;28026;48.562;14.440;2023-05-07T05:59:46;39.81;34.31;53.02;;
37223;Laerm;28026;48.562;14.440;2023-05-07T06:02:17;41.24;35.36;53.59;;
37223;Laerm;28026;48.562;14.440;2023-05-07T06:04:48;39.90;34.69;48.70;;
37223;Laerm;28026;48.562;14.440;2023-05-07T06:07:19;40.65;35.04;52.36;;
37223;Laerm;28026;48.562;14.440;2023-05-07T06:09:50;43.00;36.20;53.69;;
37223;Laerm;28026;48.562;14.440;2023-05-07T06:12:21;41.20;34.31;59.99;;
37223;Laerm;28026;48.562;14.440;2023-05-07T06:14:52;40.54;35.36;52.10;;
37223;Laerm;28026;48.562;14.440;2023-05-07T06:17:22;43.19;36.45;51.19;;
37223;Laerm;28026;48.562;14.440;2023-05-07T06:19:53;43.20;37.52;54.28;;
37223;Laerm;28026;48.562;14.440;2023-05-07T06:22:24;41.99;36.91;57.89;;
37223;Laerm;28026;48.562;14.440;2023-05-07T06:24:55;42.85;35.66;56.56;;
37223;Laerm;28026;48.562;14.440;2023-05-07T06:27:26;46.53;36.69;71.46;;
37223;Laerm;28026;48.562;14.440;2023-05-07T06:29:58;54.16;38.81;81.21;;
37223;Laerm;28026;48.562;14.440;2023-05-07T06:32:29;51.47;37.32;67.59;;
37223;Laerm;28026;48.562;14.440;2023-05-07T06:35:00;49.13;37.88;66.71;;
37223;Laerm;28026;48.562;14.440;2023-05-07T06:37:30;51.78;39.21;68.38;;
37223;Laerm;28026;48.562;14.440;2023-05-07T06:40:01;44.94;36.69;63.05;;
37223;Laerm;28026;48.562;14.440;2023-05-07T06:42:32;49.66;39.58;63.17;;
37223;Laerm;28026;48.562;14.440;2023-05-07T06:45:04;50.60;39.92;63.67;;
37223;Laerm;28026;48.562;14.440;2023-05-07T06:47:35;51.70;39.34;67.62;;
37223;Laerm;28026;48.562;14.440;2023-05-07T06:50:07;49.85;38.95;70.25;;
37223;Laerm;28026;48.562;14.440;2023-05-07T06:52:37;48.08;37.70;64.79;;
37223;Laerm;28026;48.562;14.440;2023-05-07T06:55:09;45.34;37.12;60.65;;
37223;Laerm;28026;48.562;14.440;2023-05-07T06:57:39;49.90;37.88;62.35;;
37223;Laerm;28026;48.562;14.440;2023-05-07T07:00:11;43.09;35.66;54.70;;
37223;Laerm;28026;48.562;14.440;2023-05-07T07:02:42;50.01;37.88;69.76;;
37223;Laerm;28026;48.562;14.440;2023-05-07T07:05:12;49.89;38.47;67.23;;
37223;Laerm;28026;48.562;14.440;2023-05-07T07:07:43;50.42;38.67;66.67;;
37223;Laerm;28026;48.562;14.440;2023-05-07T07:10:14;52.40;38.81;68.66;;
37223;Laerm;28026;48.562;14.440;2023-05-07T07:12:45;47.93;37.70;62.99;;
37223;Laerm;28026;48.562;14.440;2023-05-07T07:15:16;48.21;38.37;63.79;;
37223;Laerm;28026;48.562;14.440;2023-05-07T07:17:48;44.88;37.70;59.86;;
37223;Laerm;28026;48.562;14.440;2023-05-07T07:20:19;46.80;38.21;61.34;;
37223;Laerm;28026;48.562;14.440;2023-05-07T07:22:50;49.84;38.18;65.06;;
37223;Laerm;28026;48.562;14.440;2023-05-07T07:25:20;46.75;37.52;59.99;;
37223;Laerm;28026;48.562;14.440;2023-05-07T07:27:51;50.89;37.17;68.02;;
37223;Laerm;28026;48.562;14.440;2023-05-07T07:30:22;48.58;39.08;64.78;;
37223;Laerm;28026;48.562;14.440;2023-05-07T07:32:54;46.11;38.81;61.47;;
37223;Laerm;28026;48.562;14.440;2023-05-07T07:35:25;46.56;38.21;60.42;;
37223;Laerm;28026;48.562;14.440;2023-05-07T07:37:56;45.61;38.05;58.02;;
37223;Laerm;28026;48.562;14.440;2023-05-07T07:40:27;45.79;37.88;60.68;;
37223;Laerm;28026;48.562;14.440;2023-05-07T07:42:58;50.28;41.61;62.20;;
37223;Laerm;28026;48.562;14.440;2023-05-07T07:45:29;47.88;38.81;61.82;;
37223;Laerm;28026;48.562;14.440;2023-05-07T07:48:00;48.67;38.05;63.49;;
37223;Laerm;28026;48.562;14.440;2023-05-07T07:50:31;47.36;37.88;59.87;;
37223;Laerm;28026;48.562;14.440;2023-05-07T07:53:02;48.87;38.95;66.46;;
37223;Laerm;28026;48.562;14.440;2023-05-07T07:55:38;47.50;39.99;63.60;;
37223;Laerm;28026;48.562;14.440;2023-05-07T07:58:10;47.49;37.32;66.45;;
37223;Laerm;28026;48.562;14.440;2023-05-07T08:00:41;47.20;38.21;63.77;;
37223;Laerm;28026;48.562;14.440;2023-05-07T08:03:11;48.11;39.70;61.89;;
37223;Laerm;28026;48.562;14.440;2023-05-07T08:05:43;47.74;38.95;62.43;;
37223;Laerm;28026;48.562;14.440;2023-05-07T08:08:13;49.20;40.33;64.44;;
37223;Laerm;28026;48.562;14.440;2023-05-07T08:10:44;46.26;39.08;62.16;;
37223;Laerm;28026;48.562;14.440;2023-05-07T08:13:17;45.54;39.35;59.84;;
37223;Laerm;28026;48.562;14.440;2023-05-07T08:15:48;45.38;38.67;66.48;;
37223;Laerm;28026;48.562;14.440;2023-05-07T08:18:19;51.51;40.03;66.98;;
37223;Laerm;28026;48.562;14.440;2023-05-07T08:20:50;49.29;39.21;67.75;;
37223;Laerm;28026;48.562;14.440;2023-05-07T08:23:21;50.03;38.81;66.37;;
37223;Laerm;28026;48.562;14.440;2023-05-07T08:25:53;48.17;38.05;63.68;;
37223;Laerm;28026;48.562;14.440;2023-05-07T08:28:24;46.88;37.52;62.51;;
37223;Laerm;28026;48.562;14.440;2023-05-07T08:30:55;47.21;39.92;60.69;;
37223;Laerm;28026;48.562;14.440;2023-05-07T08:33:27;46.16;38.05;62.63;;
37223;Laerm;28026;48.562;14.440;2023-05-07T08:35:58;47.50;40.23;63.82;;
37223;Laerm;28026;48.562;14.440;2023-05-07T08:38:28;48.92;40.43;62.58;;
37223;Laerm;28026;48.562;14.440;2023-05-07T08:40:59;49.33;39.08;69.55;;
37223;Laerm;28026;48.562;14.440;2023-05-07T08:43:32;47.93;38.52;66.74;;
37223;Laerm;28026;48.562;14.440;2023-05-07T08:46:04;47.57;37.52;61.31;;
37223;Laerm;28026;48.562;14.440;2023-05-07T08:48:36;55.71;41.30;78.79;;
37223;Laerm;28026;48.562;14.440;2023-05-07T08:51:11;54.51;37.32;74.56;;
37223;Laerm;28026;48.562;14.440;2023-05-07T08:53:43;58.48;37.32;84.65;;
37223;Laerm;28026;48.562;14.440;2023-05-07T08:56:15;52.63;35.94;74.95;;
37223;Laerm;28026;48.562;14.440;2023-05-07T08:58:48;47.58;43.49;69.08;;
37223;Laerm;28026;48.562;14.440;2023-05-07T09:01:18;48.59;43.29;72.30;;
37223;Laerm;28026;48.562;14.440;2023-05-07T09:03:49;45.86;39.58;63.35;;
37223;Laerm;28026;48.562;14.440;2023-05-07T09:06:21;47.06;39.58;72.60;;
37223;Laerm;28026;48.562;14.440;2023-05-07T09:08:54;48.37;37.70;77.43;;
37223;Laerm;28026;48.562;14.440;2023-05-07T09:11:25;57.87;37.12;84.61;;
37223;Laerm;28026;48.562;14.440;2023-05-07T09:13:57;42.41;35.66;64.19;;
37223;Laerm;28026;48.562;14.440;2023-05-07T09:16:32;42.77;35.94;70.85;;
37223;Laerm;28026;48.562;14.440;2023-05-07T09:19:03;43.62;38.52;59.22;;
37223;Laerm;28026;48.562;14.440;2023-05-07T09:21:35;41.76;36.20;59.12;;
37223;Laerm;28026;48.562;14.440;2023-05-07T09:24:06;42.61;35.04;61.41;;
37223;Laerm;28026;48.562;14.440;2023-05-07T09:26:36;41.78;36.45;56.71;;
37223;Laerm;28026;48.562;14.440;2023-05-07T09:29:08;41.12;35.94;60.29;;
37223;Laerm;28026;48.562;14.440;2023-05-07T09:31:40;48.59;39.81;78.36;;
37223;Laerm;28026;48.562;14.440;2023-05-07T09:34:11;43.18;37.32;62.96;;
37223;Laerm;28026;48.562;14.440;2023-05-07T09:36:42;44.26;37.12;69.72;;
37223;Laerm;28026;48.562;14.440;2023-05-07T09:39:13;42.35;36.45;57.53;;
37223;Laerm;28026;48.562;14.440;2023-05-07T09:41:47;43.98;38.21;61.62;;
37223;Laerm;28026;48.562;14.440;2023-05-07T09:44:18;44.38;38.81;67.82;;
37223;Laerm;28026;48.562;14.440;2023-05-07T09:46:54;47.25;36.20;75.80;;
37223;Laerm;28026;48.562;14.440;2023-05-07T09:49:30;45.43;37.12;63.31;;
37223;Laerm;28026;48.562;14.440;2023-05-07T09:52:03;45.75;34.31;70.16;;
37223;Laerm;28026;48.562;14.440;2023-05-07T09:54:36;44.54;36.20;65.89;;
37223;Laerm;28026;48.562;14.440;2023-05-07T09:57:12;45.48;36.45;68.14;;
37223;Laerm;28026;48.562;14.440;2023-05-07T09:59:46;44.65;37.70;58.01;;
37223;Laerm;28026;48.562;14.440;2023-05-07T10:02:19;44.31;37.12;72.36;;
37223;Laerm;28026;48.562;14.440;2023-05-07T10:04:50;42.04;35.94;57.03;;
37223;Laerm;28026;48.562;14.440;2023-05-07T10:07:22;43.61;36.45;62.62;;
37223;Laerm;28026;48.562;14.440;2023-05-07T10:09:55;48.61;42.22;61.66;;
37223;Laerm;28026;48.562;14.440;2023-05-07T10:12:27;44.18;37.88;58.68;;
37223;Laerm;28026;48.562;14.440;2023-05-07T10:14:58;41.01;35.36;63.33;;
37223;Laerm;28026;48.562;14.440;2023-05-07T10:17:29;40.84;34.69;65.39;;
37223;Laerm;28026;48.562;14.440;2023-05-07T10:20:01;45.75;35.94;65.15;;
37223;Laerm;28026;48.562;14.440;2023-05-07T10:22:46;42.61;34.69;61.82;;
37223;Laerm;28026;48.562;14.440;2023-05-07T10:25:31;45.02;37.70;69.23;;
37223;Laerm;28026;48.562;14.440;2023-05-07T10:28:08;45.82;36.20;70.46;;
37223;Laerm;28026;48.562;14.440;2023-05-07T10:31:10;40.76;33.90;56.38;;
37223;Laerm;28026;48.562;14.440;2023-05-07T10:33:48;41.98;35.66;56.47;;
37223;Laerm;28026;48.562;14.440;2023-05-07T10:36:22;45.06;36.45;58.03;;
37223;Laerm;28026;48.562;14.440;2023-05-07T10:38:54;44.55;35.94;71.74;;
37223;Laerm;28026;48.562;14.440;2023-05-07T10:41:25;45.60;38.95;61.67;;
37223;Laerm;28026;48.562;14.440;2023-05-07T10:43:56;44.80;35.36;64.15;;
37223;Laerm;28026;48.562;14.440;2023-05-07T10:46:27;44.64;34.31;69.32;;
37223;Laerm;28026;48.562;14.440;2023-05-07T10:51:37;46.96;36.45;64.29;;
37223;Laerm;28026;48.562;14.440;2023-05-07T10:56:43;46.39;38.52;62.62;;
37223;Laerm;28026;48.562;14.440;2023-05-07T11:01:57;40.02;34.69;58.37;;
37223;Laerm;28026;48.562;14.440;2023-05-07T11:04:29;44.22;37.88;66.43;;
37223;Laerm;28026;48.562;14.440;2023-05-07T11:15:09;43.13;37.52;60.98;;
37223;Laerm;28026;48.562;14.440;2023-05-07T11:17:58;42.46;35.04;65.00;;
37223;Laerm;28026;48.562;14.440;2023-05-07T11:26:06;41.84;35.36;57.75;;
37223;Laerm;28026;48.562;14.440;2023-05-07T11:28:43;45.12;37.70;62.69;;
37223;Laerm;28026;48.562;14.440;2023-05-07T11:31:13;44.23;35.04;70.25;;
37223;Laerm;28026;48.562;14.440;2023-05-07T11:33:45;42.87;33.44;65.21;;
37223;Laerm;28026;48.562;14.440;2023-05-07T11:36:18;41.71;33.44;61.35;;
37223;Laerm;28026;48.562;14.440;2023-05-07T11:38:50;42.21;34.69;59.96;;
37223;Laerm;28026;48.562;14.440;2023-05-07T11:41:21;43.81;34.69;66.28;;
37223;Laerm;28026;48.562;14.440;2023-05-07T11:43:58;46.55;38.21;69.72;;
37223;Laerm;28026;48.562;14.440;2023-05-07T11:46:29;42.97;36.91;58.86;;
37223;Laerm;28026;48.562;14.440;2023-05-07T11:49:00;47.61;38.95;77.64;;
37223;Laerm;28026;48.562;14.440;2023-05-07T11:51:31;43.54;36.91;64.03;;
37223;Laerm;28026;48.562;14.440;2023-05-07T11:54:04;43.14;37.12;67.14;;
37223;Laerm;28026;48.562;14.440;2023-05-07T11:56:39;47.22;36.45;64.82;;
37223;Laerm;28026;48.562;14.440;2023-05-07T11:59:10;44.79;38.32;70.47;;
37223;Laerm;28026;48.562;14.440;2023-05-07T12:01:40;46.30;36.69;67.65;;
37223;Laerm;28026;48.562;14.440;2023-05-07T12:04:19;42.56;35.94;67.15;;
37223;Laerm;28026;48.562;14.440;2023-05-07T12:06:54;44.76;37.12;67.21;;
37223;Laerm;28026;48.562;14.440;2023-05-07T12:09:26;44.36;36.45;70.17;;
37223;Laerm;28026;48.562;14.440;2023-05-07T12:11:57;44.83;35.36;72.46;;
37223;Laerm;28026;48.562;14.440;2023-05-07T12:14:33;44.20;34.31;68.99;;
37223;Laerm;28026;48.562;14.440;2023-05-07T12:17:09;42.09;35.04;60.95;;
37223;Laerm;28026;48.562;14.440;2023-05-07T12:19:44;43.34;35.66;61.99;;
37223;Laerm;28026;48.562;14.440;2023-05-07T12:22:15;46.47;35.66;63.50;;
37223;Laerm;28026;48.562;14.440;2023-05-07T12:24:57;40.94;35.04;54.94;;
37223;Laerm;28026;48.562;14.440;2023-05-07T12:27:28;40.65;34.31;62.55;;
37223;Laerm;28026;48.562;14.440;2023-05-07T12:29:59;43.16;34.69;61.82;;
37223;Laerm;28026;48.562;14.440;2023-05-07T12:32:30;44.95;37.52;64.19;;
37223;Laerm;28026;48.562;14.440;2023-05-07T12:35:01;42.19;36.91;57.82;;
37223;Laerm;28026;48.562;14.440;2023-05-07T12:37:32;43.02;33.90;67.24;;
37223;Laerm;28026;48.562;14.440;2023-05-07T12:40:08;42.40;35.36;56.04;;
37223;Laerm;28026;48.562;14.440;2023-05-07T12:42:40;44.45;38.37;61.85;;
37223;Laerm;28026;48.562;14.440;2023-05-07T12:45:15;43.56;37.12;58.60;;
37223;Laerm;28026;48.562;14.440;2023-05-07T12:47:47;40.24;35.66;48.49;;
37223;Laerm;28026;48.562;14.440;2023-05-07T12:50:18;40.65;35.04;67.72;;
37223;Laerm;28026;48.562;14.440;2023-05-07T12:52:49;44.01;35.59;70.24;;
37223;Laerm;28026;48.562;14.440;2023-05-07T12:55:20;42.95;36.69;57.36;;
37223;Laerm;28026;48.562;14.440;2023-05-07T12:57:52;43.93;35.36;67.05;;
37223;Laerm;28026;48.562;14.440;2023-05-07T13:00:37;40.19;33.44;66.43;;
37223;Laerm;28026;48.562;14.440;2023-05-07T13:03:08;40.48;35.04;57.23;;
37223;Laerm;28026;48.562;14.440;2023-05-07T13:05:39;40.11;34.69;48.90;;
37223;Laerm;28026;48.562;14.440;2023-05-07T13:08:10;42.30;35.94;60.61;;
37223;Laerm;28026;48.562;14.440;2023-05-07T13:10:41;42.94;35.66;65.65;;
37223;Laerm;28026;48.562;14.440;2023-05-07T13:13:12;42.76;36.20;61.34;;
37223;Laerm;28026;48.562;14.440;2023-05-07T13:15:42;41.26;36.91;51.56;;
37223;Laerm;28026;48.562;14.440;2023-05-07T13:18:14;44.42;35.36;69.27;;
37223;Laerm;28026;48.562;14.440;2023-05-07T13:20:45;42.60;36.20;65.69;;
37223;Laerm;28026;48.562;14.440;2023-05-07T13:23:15;44.41;35.94;72.87;;
37223;Laerm;28026;48.562;14.440;2023-05-07T13:25:47;43.99;37.88;63.28;;
37223;Laerm;28026;48.562;14.440;2023-05-07T13:28:18;40.81;35.66;54.86;;
37223;Laerm;28026;48.562;14.440;2023-05-07T13:30:50;43.16;36.45;62.56;;
37223;Laerm;28026;48.562;14.440;2023-05-07T13:33:22;41.43;36.20;57.87;;
37223;Laerm;28026;48.562;14.440;2023-05-07T13:35:54;40.72;35.04;47.50;;
37223;Laerm;28026;48.562;14.440;2023-05-07T13:38:27;43.30;37.32;56.87;;
37223;Laerm;28026;48.562;14.440;2023-05-07T13:40:58;43.57;37.52;62.00;;
37223;Laerm;28026;48.562;14.440;2023-05-07T13:43:29;46.69;38.32;66.71;;
37223;Laerm;28026;48.562;14.440;2023-05-07T13:46:00;43.41;34.69;60.50;;
37223;Laerm;28026;48.562;14.440;2023-05-07T13:48:31;45.23;36.45;70.63;;
37223;Laerm;28026;48.562;14.440;2023-05-07T13:51:02;42.95;36.69;62.16;;
37223;Laerm;28026;48.562;14.440;2023-05-07T13:53:33;43.36;33.90;71.07;;
37223;Laerm;28026;48.562;14.440;2023-05-07T13:56:04;43.49;38.05;64.89;;
37223;Laerm;28026;48.562;14.440;2023-05-07T13:58:35;41.37;37.12;58.90;;
37223;Laerm;28026;48.562;14.440;2023-05-07T14:01:06;41.06;35.04;51.01;;
37223;Laerm;28026;48.562;14.440;2023-05-07T14:03:37;41.83;33.90;62.54;;
37223;Laerm;28026;48.562;14.440;2023-05-07T14:06:10;43.66;35.94;64.77;;
37223;Laerm;28026;48.562;14.440;2023-05-07T14:08:40;44.03;33.90;72.69;;
37223;Laerm;28026;48.562;14.440;2023-05-07T14:11:11;42.54;33.90;66.70;;
37223;Laerm;28026;48.562;14.440;2023-05-07T14:13:42;40.44;34.31;63.55;;
37223;Laerm;28026;48.562;14.440;2023-05-07T14:16:13;41.23;36.45;48.40;;
37223;Laerm;28026;48.562;14.440;2023-05-07T14:18:44;41.78;34.31;59.05;;